Time;durP1;ratioP1;P1;durP2;ratioP2;P2;SDS_P1;SDS_P2;PMS_P1;PMS_P2;Temp;Humidity;BMP_temperature;BMP_pressure;BME280_temperature;BME280_humidity;BME280_pressure;Samples;Min_cycle;Max_cycle;Signal;HPM_P1;HPM_P2
2022/09/07 00:01:52;;;;;;;;;;;;;;;;;;10418795;28;20295;-60
2022/09/07 00:06:54;;;;;;;;;;;;;;;;;;10419078;28;20424;-60
2022/09/07 00:11:56;;;;;;;;;;;;;;;;;;10418798;28;19929;-60
2022/09/07 00:16:58;;;;;;;;;;;;;;;;;;10419380;28;19932;-60
2022/09/07 00:22:00;;;;;;;;;;;;;;;;;;10417853;28;20284;-60
2022/09/07 00:27:02;;;;;;;;;;;;;;;;;;10418874;28;19925;-60
2022/09/07 00:32:04;;;;;;;;;;;;;;;;;;10417209;28;20384;-61
2022/09/07 00:37:07;;;;;;;;;;;;;;;;;;10418536;28;19925;-61
2022/09/07 00:42:09;;;;;;;;;;;;;;;;;;10417293;28;19925;-61
2022/09/07 00:47:11;;;;;;;;;;;;;;;;;;10416625;28;19925;-60
2022/09/07 00:52:13;;;;;;;;;;;;;;;;;;10416603;28;19932;-60
2022/09/07 00:57:15;;;;;;;;;;;;;;;;;;10417158;28;20423;-60
2022/09/07 01:02:17;;;;;;;;;;;;;;;;;;10417661;28;19925;-61
2022/09/07 01:07:19;;;;;;;;;;;;;;;;;;10416105;28;19932;-60
2022/09/07 01:12:21;;;;;;;;;;;;;;;;;;10415978;28;20300;-61
2022/09/07 01:17:23;;;;;;;;;;;;;;;;;;10416976;28;19925;-61
2022/09/07 01:22:25;;;;;;;;;;;;;;;;;;10416306;28;19929;-61
2022/09/07 01:27:27;;;;;;;;;;;;;;;;;;10416042;28;19925;-61
2022/09/07 01:32:30;;;;;;;;;;;;;;;;;;10415101;28;19931;-61
2022/09/07 01:37:32;;;;;;;;;;;;;;;;;;10416513;28;19925;-61
2022/09/07 01:42:34;;;;;;;;;;;;;;;;;;10415214;28;20261;-61
2022/09/07 01:47:36;;;;;;;;;;;;;;;;;;10416162;28;19925;-61
2022/09/07 01:52:38;;;;;;;;;;;;;;;;;;10413581;28;19925;-61
2022/09/07 01:57:40;;;;;;;;;;;;;;;;;;10415792;28;19926;-61
2022/09/07 02:02:42;;;;;;;;;;;;;;;;;;10415343;28;19925;-61
2022/09/07 02:07:44;;;;;;;;;;;;;;;;;;10415187;28;19968;-62
2022/09/07 02:12:47;;;;;;;;;;;;;;;;;;10415039;28;19932;-62
2022/09/07 02:17:49;;;;;;;;;;;;;;;;;;10415699;28;19933;-62
2022/09/07 02:22:51;;;;;;;;;;;;;;;;;;10414902;28;20284;-62
2022/09/07 02:27:53;;;;;;;;;;;;;;;;;;10414730;28;19925;-62
2022/09/07 02:32:55;;;;;;;;;;;;;;;;;;10414897;28;19929;-62
2022/09/07 02:37:58;;;;;;;;;;;;;;;;;;10415117;28;19925;-62
2022/09/07 02:43:00;;;;;;;;;;;;;;;;;;10415221;28;19925;-62
2022/09/07 02:48:02;;;;;;;;;;;;;;;;;;10414540;28;19925;-62
2022/09/07 02:53:04;;;;;;;;;;;;;;;;;;10414387;28;19929;-62
2022/09/07 02:58:06;;;;;;;;;;;;;;;;;;10414984;28;19936;-62
2022/09/07 03:03:08;;;;;;;;;;;;;;;;;;10414196;28;19925;-62
2022/09/07 03:08:10;;;;;;;;;;;;;;;;;;10416669;28;19932;-62
2022/09/07 03:13:12;;;;;;;;;;;;;;;;;;10420670;28;19925;-62
2022/09/07 03:18:14;;;;;;;;;;;;;;;;;;10421776;28;19931;-62
2022/09/07 03:23:16;;;;;;;;;;;;;;;;;;10420751;28;20299;-62
2022/09/07 03:28:18;;;;;;;;;;;;;;;;;;10420659;28;19925;-62
2022/09/07 03:33:20;;;;;;;;;;;;;;;;;;10419186;28;19936;-62
2022/09/07 03:38:22;;;;;;;;;;;;;;;;;;10420340;28;20287;-62
2022/09/07 03:43:25;;;;;;;;;;;;;;;;;;10419685;28;20288;-62
2022/09/07 03:48:27;;;;;;;;;;;;;;;;;;10419914;28;19952;-62
2022/09/07 03:53:29;;;;;;;;;;;;;;;;;;10419582;28;19932;-62
2022/09/07 03:58:31;;;;;;;;;;;;;;;;;;10420142;28;19925;-62
2022/09/07 04:03:33;;;;;;;;;;;;;;;;;;10419255;28;19925;-62
2022/09/07 04:08:35;;;;;;;;;;;;;;;;;;10419063;28;20398;-62
2022/09/07 04:13:37;;;;;;;;;;;;;;;;;;10418774;28;19926;-62
2022/09/07 04:18:39;;;;;;;;;;;;;;;;;;10418736;28;19926;-62
2022/09/07 04:23:42;;;;;;;;;;;;;;;;;;10418885;28;19925;-62
2022/09/07 04:28:44;;;;;;;;;;;;;;;;;;10418883;28;19925;-62
2022/09/07 04:33:48;;;;;;;;;;;;;;;;;;10416791;28;19925;-62
2022/09/07 04:38:50;;;;;;;;;;;;;;;;;;10418574;28;19931;-62
2022/09/07 04:43:53;;;;;;;;;;;;;;;;;;10417035;28;20283;-62
2022/09/07 04:48:55;;;;;;;;;;;;;;;;;;10418038;28;19925;-62
2022/09/07 04:53:57;;;;;;;;;;;;;;;;;;10417233;28;19969;-62
2022/09/07 04:58:59;;;;;;;;;;;;;;;;;;10416006;28;19936;-62
2022/09/07 05:04:01;;;;;;;;;;;;;;;;;;10399478;28;20270;-62
2022/09/07 05:09:03;;;;;;;;;;;;;;;;;;10416830;28;20276;-62
2022/09/07 05:14:05;;;;;;;;;;;;;;;;;;10415846;28;20275;-62
2022/09/07 05:19:08;;;;;;;;;;;;;;;;;;10416466;28;19932;-62
2022/09/07 05:24:10;;;;;;;;;;;;;;;;;;10416352;28;19929;-62
2022/09/07 05:29:12;;;;;;;;;;;;;;;;;;10415342;28;19929;-62
2022/09/07 05:34:34;;;;;;;;;;;;;;;;;;10415818;28;19929;-62
2022/09/07 05:39:36;;;;;;;;;;;;;;;;;;10415881;28;19947;-61
2022/09/07 05:44:38;;;;;;;;;;;;;;;;;;10415563;28;19933;-60
2022/09/07 05:49:43;;;;;;;;;;;;;;;;;;10414549;28;19964;-60
2022/09/07 05:54:46;;;;;;;;;;;;;;;;;;10416151;28;19925;-60
2022/09/07 05:59:48;;;;;;;;;;;;;;;;;;10415293;28;19932;-60
2022/09/07 06:04:50;;;;;;;;;;;;;;;;;;10415309;28;19929;-60
2022/09/07 06:09:52;;;;;;;;;;;;;;;;;;10414970;28;19925;-60
2022/09/07 06:15:14;;;;;;;;;;;;;;;;;;10415052;28;19975;-61
2022/09/07 06:20:16;;;;;;;;;;;;;;;;;;10415068;28;19933;-60
2022/09/07 06:25:19;;;;;;;;;;;;;;;;;;10414254;28;19947;-60
2022/09/07 06:30:21;;;;;;;;;;;;;;;;;;10413724;28;19932;-61
2022/09/07 06:35:23;;;;;;;;;;;;;;;;;;10414765;28;19933;-60
2022/09/07 06:40:25;;;;;;;;;;;;;;;;;;10414655;28;19925;-61
2022/09/07 06:45:27;;;;;;;;;;;;;;;;;;10420770;28;20296;-60
2022/09/07 06:50:30;;;;;;;;;;;;;;;;;;10421376;28;20012;-61
2022/09/07 06:55:32;;;;;;;;;;;;;;;;;;10418980;28;20478;-60
2022/09/07 07:00:34;;;;;;;;;;;;;;;;;;10421019;28;19933;-60
2022/09/07 07:05:36;;;;;;;;;;;;;;;;;;10420551;28;19964;-60
2022/09/07 07:10:38;;;;;;;;;;;;;;;;;;10418491;28;19975;-60
2022/09/07 07:15:40;;;;;;;;;;;;;;;;;;10421736;28;20349;-60
2022/09/07 07:20:43;;;;;;;;;;;;;;;;;;10421064;28;20288;-60
2022/09/07 07:25:45;;;;;;;;;;;;;;;;;;10418723;28;20380;-60
2022/09/07 07:30:47;;;;;;;;;;;;;;;;;;10420445;28;19936;-60
2022/09/07 07:35:49;;;;;;;;;;;;;;;;;;10419665;28;19925;-60
2022/09/07 07:40:51;;;;;;;;;;;;;;;;;;10418722;28;19929;-60
2022/09/07 07:46:13;;;;;;;;;;;;;;;;;;10427997;22;19964;-61
2022/09/07 07:51:15;;;;;;;;;;;;;;;;;;10419899;28;20268;-61
2022/09/07 07:56:17;;;;;;;;;;;;;;;;;;10419925;28;19976;-61
2022/09/07 08:01:19;;;;;;;;;;;;;;;;;;10420178;28;19925;-61
2022/09/07 08:06:22;;;;;;;;;;;;;;;;;;10420021;28;19983;-61
2022/09/07 08:11:25;;;;;;;;;;;;;;;;;;10419055;28;20273;-61
2022/09/07 08:16:27;;;;;;;;;;;;;;;;;;10418467;28;19971;-61
2022/09/07 08:21:29;;;;;;;;;;;;;;;;;;10419364;28;19931;-61
2022/09/07 08:26:31;;;;;;;;;;;;;;;;;;10419181;28;19925;-61
2022/09/07 08:31:33;;;;;;;;;;;;;;;;;;10418904;28;19975;-61
2022/09/07 08:36:35;;;;;;;;;;;;;;;;;;10418826;28;20029;-61
2022/09/07 08:41:38;;;;;;;;;;;;;;;;;;10418526;28;19971;-61
2022/09/07 08:46:40;;;;;;;;;;;;;;;;;;10417909;28;19979;-61
2022/09/07 08:51:42;;;;;;;;;;;;;;;;;;10417461;28;19925;-61
2022/09/07 08:56:44;;;;;;;;;;;;;;;;;;10417364;28;20253;-61
2022/09/07 09:02:06;;;;;;;;;;;;;;;;;;10417783;28;20012;-61
2022/09/07 09:07:28;;;;;;;;;;;;;;;;;;10416061;28;19979;-61
2022/09/07 09:12:32;;;;;;;;;;;;;;;;;;10417417;28;19932;-61
2022/09/07 09:17:38;;;;;;;;;;;;;;;;;;10417243;28;19968;-61
2022/09/07 09:22:40;;;;;;;;;;;;;;;;;;10416412;28;20347;-61
2022/09/07 09:27:42;;;;;;;;;;;;;;;;;;10416790;28;19925;-61
2022/09/07 09:32:44;;;;;;;;;;;;;;;;;;10416131;28;19951;-61
2022/09/07 09:37:46;;;;;;;;;;;;;;;;;;10416606;28;19979;-62
2022/09/07 09:42:48;;;;;;;;;;;;;;;;;;10416528;28;19936;-62
2022/09/07 09:47:50;;;;;;;;;;;;;;;;;;10415485;28;20434;-62
2022/09/07 09:52:52;;;;;;;;;;;;;;;;;;10415669;28;19925;-62
2022/09/07 09:57:57;;;;;;;;;;;;;;;;;;10416164;28;19925;-62
2022/09/07 10:03:19;;;;;;;;;;;;;;;;;;10415359;28;20368;-62
2022/09/07 10:08:41;;;;;;;;;;;;;;;;;;10415185;28;20368;-62
2022/09/07 10:13:43;;;;;;;;;;;;;;;;;;10415795;28;19925;-62
2022/09/07 10:18:45;;;;;;;;;;;;;;;;;;10421391;28;20360;-62
2022/09/07 10:23:47;;;;;;;;;;;;;;;;;;10424014;28;19975;-62
2022/09/07 10:28:49;;;;;;;;;;;;;;;;;;10423645;28;19983;-62
2022/09/07 10:34:11;;;;;;;;;;;;;;;;;;10422897;28;20343;-62
2022/09/07 10:39:28;;;;;;;;;;;;;;;;;;10423349;28;20386;-62
2022/09/07 10:44:30;;;;;;;;;;;;;;;;;;10422443;28;19931;-65
2022/09/07 10:49:32;;;;;;;;;;;;;;;;;;10422905;28;19925;-65
2022/09/07 10:54:35;;;;;;;;;;;;;;;;;;10422140;28;20392;-65
2022/09/07 10:59:37;;;;;;;;;;;;;;;;;;10421931;28;20286;-65
2022/09/07 11:04:59;;;;;;;;;;;;;;;;;;10420712;28;19964;-68
2022/09/07 11:10:01;;;;;;;;;;;;;;;;;;10422108;28;19976;-66
2022/09/07 11:15:03;;;;;;;;;;;;;;;;;;10420182;28;20332;-67
2022/09/07 11:20:05;;;;;;;;;;;;;;;;;;10421767;28;19948;-67
2022/09/07 11:25:07;;;;;;;;;;;;;;;;;;10420941;28;20392;-66
2022/09/07 11:30:30;;;;;;;;;;;;;;;;;;10419890;28;20012;-67
2022/09/07 11:35:32;;;;;;;;;;;;;;;;;;10421267;28;19929;-66
2022/09/07 11:40:34;;;;;;;;;;;;;;;;;;10420425;28;19971;-67
2022/09/07 11:45:36;;;;;;;;;;;;;;;;;;10420434;28;19925;-67
2022/09/07 11:50:40;;;;;;;;;;;;;;;;;;10419960;28;19929;-67
2022/09/07 11:55:42;;;;;;;;;;;;;;;;;;10419809;28;19933;-67
2022/09/07 12:00:44;;;;;;;;;;;;;;;;;;10419610;28;19925;-67
2022/09/07 12:05:46;;;;;;;;;;;;;;;;;;10420063;28;19933;-66
2022/09/07 12:10:49;;;;;;;;;;;;;;;;;;10419170;28;20364;-67
2022/09/07 12:15:51;;;;;;;;;;;;;;;;;;10419079;28;19932;-66
2022/09/07 12:20:53;;;;;;;;;;;;;;;;;;10419495;28;19925;-66
2022/09/07 12:25:55;;;;;;;;;;;;;;;;;;10418659;28;19940;-67
2022/09/07 12:30:58;;;;;;;;;;;;;;;;;;10418376;28;19979;-66
2022/09/07 12:36:00;;;;;;;;;;;;;;;;;;10418855;28;19933;-65
2022/09/07 12:41:02;;;;;;;;;;;;;;;;;;10418569;28;19925;-67
2022/09/07 12:46:04;;;;;;;;;;;;;;;;;;10418118;28;19925;-66
2022/09/07 12:51:07;;;;;;;;;;;;;;;;;;10417611;28;20368;-67
2022/09/07 12:56:09;;;;;;;;;;;;;;;;;;10418115;28;19972;-65
2022/09/07 13:01:18;;;;;;;;;;;;;;;;;;10417276;28;19925;-66
2022/09/07 13:06:21;;;;;;;;;;;;;;;;;;10417667;28;19925;-66
2022/09/07 13:11:43;;;;;;;;;;;;;;;;;;10416857;28;19968;-67
2022/09/07 13:16:45;;;;;;;;;;;;;;;;;;10417177;28;19929;-67
2022/09/07 13:22:07;;;;;;;;;;;;;;;;;;10416503;28;19925;-66
2022/09/07 13:27:09;;;;;;;;;;;;;;;;;;10416368;28;20430;-66
2022/09/07 13:32:11;;;;;;;;;;;;;;;;;;10416790;28;19975;-67
2022/09/07 13:37:13;;;;;;;;;;;;;;;;;;10416711;28;19932;-66
2022/09/07 13:42:15;;;;;;;;;;;;;;;;;;10416692;28;19925;-66
2022/09/07 13:47:17;;;;;;;;;;;;;;;;;;10414726;28;19955;-66
2022/09/07 13:52:19;;;;;;;;;;;;;;;;;;10415816;28;19986;-66
2022/09/07 13:57:21;;;;;;;;;;;;;;;;;;10415539;28;20368;-67
2022/09/07 14:02:23;;;;;;;;;;;;;;;;;;10416112;28;19975;-66
2022/09/07 14:07:25;;;;;;;;;;;;;;;;;;10415421;28;20423;-66
2022/09/07 14:12:27;;;;;;;;;;;;;;;;;;10415176;28;20372;-66
2022/09/07 14:17:30;;;;;;;;;;;;;;;;;;10415787;28;19983;-65
2022/09/07 14:22:32;;;;;;;;;;;;;;;;;;10415847;28;19925;-66
2022/09/07 14:27:34;;;;;;;;;;;;;;;;;;10415636;28;19925;-66
2022/09/07 14:32:36;;;;;;;;;;;;;;;;;;10415416;28;19929;-66
2022/09/07 14:37:38;;;;;;;;;;;;;;;;;;10414771;28;20366;-67
2022/09/07 14:42:40;;;;;;;;;;;;;;;;;;10415315;28;19929;-67
2022/09/07 14:47:42;;;;;;;;;;;;;;;;;;10414414;28;19975;-66
2022/09/07 14:52:46;;;;;;;;;;;;;;;;;;10415136;28;19955;-66
2022/09/07 14:58:09;;;;;;;;;;;;;;;;;;10414580;28;20058;-66
2022/09/07 15:03:11;;;;;;;;;;;;;;;;;;10415565;28;19972;-65
2022/09/07 15:08:13;;;;;;;;;;;;;;;;;;10421598;28;20249;-66
2022/09/07 15:13:15;;;;;;;;;;;;;;;;;;10422149;28;19929;-66
2022/09/07 15:18:17;;;;;;;;;;;;;;;;;;10418791;28;19925;-66
2022/09/07 15:23:19;;;;;;;;;;;;;;;;;;10420854;28;20387;-65
2022/09/07 15:28:21;;;;;;;;;;;;;;;;;;10421474;28;19926;-66
2022/09/07 15:33:43;;;;;;;;;;;;;;;;;;10420567;28;19967;-66
2022/09/07 15:38:45;;;;;;;;;;;;;;;;;;10421174;28;19947;-65
2022/09/07 15:44:04;;;;;;;;;;;;;;;;;;10420223;28;20372;-66
2022/09/07 15:49:06;;;;;;;;;;;;;;;;;;10419747;28;19925;-66
2022/09/07 15:54:08;;;;;;;;;;;;;;;;;;10419943;28;20288;-65
2022/09/07 15:59:14;;;;;;;;;;;;;;;;;;10420163;28;20395;-66
2022/09/07 16:04:17;;;;;;;;;;;;;;;;;;10420187;28;19971;-65
2022/09/07 16:09:19;;;;;;;;;;;;;;;;;;10419319;28;20323;-65
2022/09/07 16:14:22;;;;;;;;;;;;;;;;;;10418819;28;19929;-65
2022/09/07 16:19:24;;;;;;;;;;;;;;;;;;10418974;28;20331;-65
2022/09/07 16:24:27;;;;;;;;;;;;;;;;;;10419365;28;19929;-65
2022/09/07 16:29:29;;;;;;;;;;;;;;;;;;10401638;28;19932;-65
2022/09/07 16:34:31;;;;;;;;;;;;;;;;;;10418389;28;20323;-65
2022/09/07 16:39:33;;;;;;;;;;;;;;;;;;10418787;28;19929;-65
2022/09/07 16:44:35;;;;;;;;;;;;;;;;;;10418351;28;19969;-65
2022/09/07 16:49:37;;;;;;;;;;;;;;;;;;10418309;28;19925;-65
2022/09/07 16:54:40;;;;;;;;;;;;;;;;;;10418206;28;19929;-64
2022/09/07 16:59:42;;;;;;;;;;;;;;;;;;10417961;28;20028;-65
2022/09/07 17:04:44;;;;;;;;;;;;;;;;;;10417733;28;19971;-64
2022/09/07 17:09:46;;;;;;;;;;;;;;;;;;10417498;28;19971;-65
2022/09/07 17:14:48;;;;;;;;;;;;;;;;;;10416782;28;19971;-64
2022/09/07 17:19:50;;;;;;;;;;;;;;;;;;10416635;28;19929;-65
2022/09/07 17:24:54;;;;;;;;;;;;;;;;;;10414865;28;19987;-65
2022/09/07 17:29:56;;;;;;;;;;;;;;;;;;10416217;28;19925;-64
2022/09/07 17:34:59;;;;;;;;;;;;;;;;;;10416083;28;19971;-65
2022/09/07 17:40:02;;;;;;;;;;;;;;;;;;10415874;28;19929;-67
2022/09/07 17:45:06;;;;;;;;;;;;;;;;;;10415533;28;19968;-65
2022/09/07 17:50:10;;;;;;;;;;;;;;;;;;10415300;28;20512;-64
2022/09/07 17:55:13;;;;;;;;;;;;;;;;;;10413784;28;19982;-65
2022/09/07 18:00:15;;;;;;;;;;;;;;;;;;10415380;28;20368;-65
2022/09/07 18:05:17;;;;;;;;;;;;;;;;;;10410545;28;19932;-64
2022/09/07 18:10:19;;;;;;;;;;;;;;;;;;10416163;28;19925;-65
2022/09/07 18:15:21;;;;;;;;;;;;;;;;;;10396034;28;20442;-65
2022/09/07 18:20:23;;;;;;;;;;;;;;;;;;10415736;28;19925;-65
2022/09/07 18:25:25;;;;;;;;;;;;;;;;;;10414982;28;19925;-64
2022/09/07 18:30:27;;;;;;;;;;;;;;;;;;10414038;28;20430;-64
2022/09/07 18:35:29;;;;;;;;;;;;;;;;;;10414930;28;19925;-65
2022/09/07 18:40:31;;;;;;;;;;;;;;;;;;10422693;28;19971;-65
2022/09/07 18:45:38;;;;;;;;;;;;;;;;;;10421577;28;20011;-65
2022/09/07 18:50:40;;;;;;;;;;;;;;;;;;10422402;28;19972;-64
2022/09/07 18:55:42;;;;;;;;;;;;;;;;;;10420256;28;19925;-64
2022/09/07 19:00:46;;;;;;;;;;;;;;;;;;10403207;28;19925;-64
2022/09/07 19:05:48;;;;;;;;;;;;;;;;;;10420941;28;19925;-65
2022/09/07 19:10:51;;;;;;;;;;;;;;;;;;10419231;28;19935;-64
2022/09/07 19:15:53;;;;;;;;;;;;;;;;;;10421476;28;20326;-64
2022/09/07 19:20:55;;;;;;;;;;;;;;;;;;10421327;28;20376;-64
2022/09/07 19:25:58;;;;;;;;;;;;;;;;;;10401891;28;19925;-64
2022/09/07 19:31:00;;;;;;;;;;;;;;;;;;10420709;28;20288;-64
2022/09/07 19:36:02;;;;;;;;;;;;;;;;;;10419876;28;19929;-64
2022/09/07 19:41:04;;;;;;;;;;;;;;;;;;10421125;28;19976;-64
2022/09/07 19:46:07;;;;;;;;;;;;;;;;;;10420391;28;19947;-64
2022/09/07 19:51:10;;;;;;;;;;;;;;;;;;10419126;28;19925;-64
2022/09/07 19:56:12;;;;;;;;;;;;;;;;;;10419377;28;19975;-64
2022/09/07 20:01:14;;;;;;;;;;;;;;;;;;10450069;22;20338;-62
2022/09/07 20:06:17;;;;;;;;;;;;;;;;;;10459736;28;20394;-63
2022/09/07 20:11:19;;;;;;;;;;;;;;;;;;10455869;28;19929;-62
2022/09/07 20:16:21;;;;;;;;;;;;;;;;;;10460396;28;19928;-62
2022/09/07 20:21:23;;;;;;;;;;;;;;;;;;10460257;28;19925;-62
2022/09/07 20:26:25;;;;;;;;;;;;;;;;;;10456858;28;20042;-63
2022/09/07 20:31:27;;;;;;;;;;;;;;;;;;10459393;28;19925;-62
2022/09/07 20:36:29;;;;;;;;;;;;;;;;;;10459272;28;19924;-63
2022/09/07 20:41:32;;;;;;;;;;;;;;;;;;10459348;28;19925;-63
2022/09/07 20:46:34;;;;;;;;;;;;;;;;;;10459080;28;19925;-63
2022/09/07 20:51:37;;;;;;;;;;;;;;;;;;10458564;28;19931;-63
2022/09/07 20:56:39;;;;;;;;;;;;;;;;;;10459624;28;19925;-63
2022/09/07 21:01:41;;;;;;;;;;;;;;;;;;10456837;28;19925;-63
2022/09/07 21:06:44;;;;;;;;;;;;;;;;;;10456410;28;20016;-63
2022/09/07 21:11:46;;;;;;;;;;;;;;;;;;10457848;28;19933;-63
2022/09/07 21:16:50;;;;;;;;;;;;;;;;;;10458036;28;19959;-63
2022/09/07 21:21:52;;;;;;;;;;;;;;;;;;10456943;28;20421;-63
2022/09/07 21:26:54;;;;;;;;;;;;;;;;;;10458534;28;19925;-63
2022/09/07 21:31:56;;;;;;;;;;;;;;;;;;10457133;28;19971;-63
2022/09/07 21:36:58;;;;;;;;;;;;;;;;;;10458343;28;19925;-63
2022/09/07 21:42:01;;;;;;;;;;;;;;;;;;10455998;28;19979;-63
2022/09/07 21:47:03;;;;;;;;;;;;;;;;;;10456531;28;19925;-63
2022/09/07 21:52:05;;;;;;;;;;;;;;;;;;10421725;28;20451;-64
2022/09/07 21:57:07;;;;;;;;;;;;;;;;;;10416314;28;19975;-64
2022/09/07 22:02:09;;;;;;;;;;;;;;;;;;10447067;28;19929;-64
2022/09/07 22:07:11;;;;;;;;;;;;;;;;;;10457289;28;19936;-64
2022/09/07 22:12:13;;;;;;;;;;;;;;;;;;10458216;28;19971;-64
2022/09/07 22:17:15;;;;;;;;;;;;;;;;;;10465036;28;20448;-64
2022/09/07 22:22:17;;;;;;;;;;;;;;;;;;10464942;28;19970;-64
2022/09/07 22:27:19;;;;;;;;;;;;;;;;;;10463723;28;19933;-64
2022/09/07 22:32:22;;;;;;;;;;;;;;;;;;10463425;28;20334;-64
2022/09/07 22:37:24;;;;;;;;;;;;;;;;;;10464907;28;19925;-64
2022/09/07 22:42:26;;;;;;;;;;;;;;;;;;10463740;28;19983;-64
2022/09/07 22:47:28;;;;;;;;;;;;;;;;;;10463872;28;19925;-64
2022/09/07 22:52:30;;;;;;;;;;;;;;;;;;10462149;28;19925;-64
2022/09/07 22:57:32;;;;;;;;;;;;;;;;;;10464107;28;19925;-64
2022/09/07 23:02:34;;;;;;;;;;;;;;;;;;10463041;28;19925;-64
2022/09/07 23:07:36;;;;;;;;;;;;;;;;;;10462696;28;19925;-64
2022/09/07 23:12:39;;;;;;;;;;;;;;;;;;10462507;28;19924;-64
2022/09/07 23:17:41;;;;;;;;;;;;;;;;;;10462708;28;20281;-64
2022/09/07 23:22:43;;;;;;;;;;;;;;;;;;10461361;28;19929;-64
2022/09/07 23:27:45;;;;;;;;;;;;;;;;;;10462578;28;19925;-64
2022/09/07 23:32:47;;;;;;;;;;;;;;;;;;10460052;28;19950;-64
2022/09/07 23:37:49;;;;;;;;;;;;;;;;;;10461851;28;20287;-63
2022/09/07 23:42:51;;;;;;;;;;;;;;;;;;10462333;28;19928;-63
2022/09/07 23:47:53;;;;;;;;;;;;;;;;;;10460594;28;20384;-63
2022/09/07 23:52:55;;;;;;;;;;;;;;;;;;10461018;28;19928;-64
2022/09/07 23:57:57;;;;;;;;;;;;;;;;;;10461174;28;20429;-63
